Time;durP1;ratioP1;P1;durP2;ratioP2;P2;SDS_P1;SDS_P2;PMS_P1;PMS_P2;Temp;Humidity;BMP_temperature;BMP_pressure;BME280_temperature;BME280_humidity;BME280_pressure;Samples;Min_cycle;Max_cycle;Signal;HPM_P1;HPM_P2
2021/09/11 00:00:52;;;;;;;0.00;0.00;;;17.00;99.90;;;;;;5026330;28;20164;-80
2021/09/11 00:03:19;;;;;;;0.00;0.00;;;16.90;99.90;;;;;;5027217;28;20042;-80
2021/09/11 00:05:46;;;;;;;0.00;0.00;;;16.90;99.90;;;;;;5026191;28;20076;-82
2021/09/11 00:08:13;;;;;;;0.00;0.00;;;17.00;99.90;;;;;;5020347;28;20312;-83
2021/09/11 00:10:40;;;;;;;0.00;0.00;;;17.10;99.90;;;;;;5026522;28;20498;-80
2021/09/11 00:13:07;;;;;;;0.00;0.00;;;17.00;99.90;;;;;;5025514;28;20674;-78
2021/09/11 00:15:34;;;;;;;0.00;0.00;;;17.00;99.90;;;;;;5010392;28;20526;-78
2021/09/11 00:18:03;;;;;;;0.03;0.03;;;17.10;99.90;;;;;;5025799;28;20041;-79
2021/09/11 00:20:30;;;;;;;0.00;0.00;;;17.10;99.90;;;;;;5025243;28;20045;-79
2021/09/11 00:22:58;;;;;;;0.00;0.00;;;17.10;99.90;;;;;;5010206;28;20044;-81
2021/09/11 00:25:26;;;;;;;0.00;0.00;;;17.10;99.90;;;;;;5029110;28;20072;-79
2021/09/11 00:27:53;;;;;;;0.00;0.00;;;17.00;99.90;;;;;;5031888;28;20053;-79
2021/09/11 00:30:20;;;;;;;0.00;0.00;;;16.90;99.90;;;;;;5030683;28;20089;-79
2021/09/11 00:32:46;;;;;;;0.00;0.00;;;16.80;99.90;;;;;;5013672;28;20068;-79
2021/09/11 00:35:15;;;;;;;0.00;0.00;;;16.80;99.90;;;;;;5022585;28;20042;-81
2021/09/11 00:37:43;;;;;;;0.63;0.63;;;16.80;99.90;;;;;;5019290;28;20519;-79
2021/09/11 00:40:12;;;;;;;0.00;0.00;;;16.90;99.90;;;;;;5009090;28;20041;-78
2021/09/11 00:42:43;;;;;;;0.00;0.00;;;16.90;99.90;;;;;;5025931;28;20614;-78
2021/09/11 00:45:10;;;;;;;0.00;0.00;;;16.90;99.90;;;;;;5025219;28;20057;-79
2021/09/11 00:47:37;;;;;;;0.00;0.00;;;16.90;99.90;;;;;;5042426;28;20080;-80
2021/09/11 00:50:04;;;;;;;0.00;0.00;;;16.90;99.90;;;;;;5025056;28;20053;-80
2021/09/11 00:52:31;;;;;;;0.00;0.00;;;16.90;99.90;;;;;;5025455;28;20503;-81
2021/09/11 00:54:58;;;;;;;0.38;0.38;;;17.00;99.90;;;;;;5024668;28;20045;-80
2021/09/11 00:57:26;;;;;;;0.00;0.00;;;17.00;99.90;;;;;;5007789;28;20046;-80
2021/09/11 00:59:54;;;;;;;0.00;0.00;;;17.00;99.90;;;;;;5025968;28;20053;-80
2021/09/11 01:02:20;;;;;;;0.00;0.00;;;17.00;99.90;;;;;;5024192;28;20052;-78
2021/09/11 01:04:47;;;;;;;0.13;0.13;;;17.00;99.90;;;;;;4998117;28;20100;-79
2021/09/11 01:07:15;;;;;;;0.00;0.00;;;16.90;99.90;;;;;;5024288;28;20042;-79
2021/09/11 01:09:42;;;;;;;0.00;0.00;;;16.90;99.90;;;;;;5032487;28;20519;-79
2021/09/11 01:12:09;;;;;;;0.00;0.00;;;16.90;99.90;;;;;;5012456;28;20038;-79
2021/09/11 01:14:36;;;;;;;0.00;0.00;;;17.00;99.90;;;;;;5009133;28;20513;-79
2021/09/11 01:17:03;;;;;;;0.00;0.00;;;17.00;99.90;;;;;;5007996;28;20112;-79
2021/09/11 01:19:29;;;;;;;1.38;1.38;;;17.10;99.90;;;;;;5024863;28;20111;-80
2021/09/11 01:21:56;;;;;;;0.20;0.20;;;17.10;99.90;;;;;;5024622;28;20053;-79
2021/09/11 01:24:23;;;;;;;0.00;0.00;;;17.00;99.90;;;;;;5022359;28;20050;-80
2021/09/11 01:26:50;;;;;;;0.47;0.47;;;16.90;99.90;;;;;;5004253;28;20770;-81
2021/09/11 01:29:17;;;;;;;0.00;0.00;;;16.90;99.90;;;;;;5028229;28;20562;-79
2021/09/11 01:31:44;;;;;;;2.33;1.65;;;16.90;99.90;;;;;;5038611;28;20410;-79
2021/09/11 01:34:11;;;;;;;0.00;0.00;;;16.70;99.90;;;;;;5020957;28;20037;-81
2021/09/11 01:36:38;;;;;;;0.55;0.55;;;16.70;99.90;;;;;;5037619;28;20045;-79
2021/09/11 01:39:05;;;;;;;0.00;0.00;;;16.70;99.90;;;;;;5028972;28;20034;-79
2021/09/11 01:41:32;;;;;;;0.00;0.00;;;16.70;99.90;;;;;;5040748;28;20049;-78
2021/09/11 01:43:58;;;;;;;0.00;0.00;;;16.70;99.90;;;;;;5024747;28;20054;-79
2021/09/11 01:46:25;;;;;;;0.13;0.13;;;16.60;99.90;;;;;;5005127;28;20049;-81
2021/09/11 01:48:52;;;;;;;0.00;0.00;;;16.50;99.90;;;;;;5004622;28;20050;-78
2021/09/11 01:51:19;;;;;;;0.00;0.00;;;16.60;99.90;;;;;;5004200;28;20046;-78
2021/09/11 01:53:45;;;;;;;0.00;0.00;;;16.70;99.90;;;;;;5004458;28;20045;-78
2021/09/11 01:56:12;;;;;;;1.27;1.17;;;16.60;99.90;;;;;;5031799;28;20100;-80
2021/09/11 01:58:39;;;;;;;0.00;0.00;;;16.60;99.90;;;;;;5025016;28;20042;-81
2021/09/11 02:01:06;;;;;;;0.00;0.00;;;16.50;99.90;;;;;;5023202;28;20048;-79
2021/09/11 02:03:32;;;;;;;0.00;0.00;;;16.50;99.90;;;;;;5024101;28;20057;-80
2021/09/11 02:05:59;;;;;;;0.20;0.20;;;16.50;99.90;;;;;;4999410;28;20049;-80
2021/09/11 02:08:26;;;;;;;0.00;0.00;;;16.50;99.90;;;;;;4999517;28;20033;-78
2021/09/11 02:10:53;;;;;;;0.00;0.00;;;16.40;99.90;;;;;;5025404;28;20050;-80
2021/09/11 02:13:19;;;;;;;0.60;0.60;;;16.30;99.90;;;;;;5026859;28;20125;-78
2021/09/11 02:15:46;;;;;;;0.00;0.00;;;16.40;99.90;;;;;;5008270;28;20046;-79
2021/09/11 02:18:13;;;;;;;0.00;0.00;;;16.40;99.90;;;;;;5004565;28;20117;-79
2021/09/11 02:20:40;;;;;;;0.00;0.00;;;16.50;99.90;;;;;;5004259;28;20059;-81
2021/09/11 02:23:07;;;;;;;0.00;0.00;;;16.50;99.90;;;;;;5004859;28;20034;-79
2021/09/11 02:25:33;;;;;;;0.00;0.00;;;16.60;99.90;;;;;;5020614;28;20061;-79
2021/09/11 02:28:00;;;;;;;0.00;0.00;;;16.50;99.90;;;;;;5008445;28;20508;-78
2021/09/11 02:30:27;;;;;;;0.00;0.00;;;16.50;99.90;;;;;;5018009;28;20049;-79
2021/09/11 02:32:54;;;;;;;0.00;0.00;;;16.70;99.90;;;;;;5023422;28;20072;-79
2021/09/11 02:35:20;;;;;;;0.00;0.00;;;16.50;99.90;;;;;;5023657;28;20042;-81
2021/09/11 02:37:47;;;;;;;0.00;0.00;;;16.60;99.90;;;;;;5034856;28;20052;-80
2021/09/11 02:40:14;;;;;;;0.00;0.00;;;16.60;99.90;;;;;;5048921;28;20430;-82
2021/09/11 02:42:41;;;;;;;0.00;0.00;;;16.70;99.90;;;;;;5035250;28;20060;-79
2021/09/11 02:45:08;;;;;;;1.63;1.52;;;16.70;99.90;;;;;;5047424;28;20049;-79
2021/09/11 02:47:35;;;;;;;0.00;0.00;;;16.80;99.90;;;;;;5013384;28;20057;-82
2021/09/11 02:50:02;;;;;;;0.00;0.00;;;16.70;99.90;;;;;;5011200;28;20053;-81
2021/09/11 02:52:29;;;;;;;0.25;0.25;;;16.70;99.90;;;;;;4993728;28;20061;-80
2021/09/11 02:54:56;;;;;;;0.00;0.00;;;16.80;99.90;;;;;;4995639;28;20042;-83
2021/09/11 02:57:22;;;;;;;0.00;0.00;;;16.80;99.90;;;;;;5030629;28;20050;-81
2021/09/11 02:59:49;;;;;;;0.00;0.00;;;16.70;99.90;;;;;;5030137;28;20478;-83
2021/09/11 03:02:16;;;;;;;0.00;0.00;;;16.60;99.90;;;;;;5024846;28;20045;-81
2021/09/11 03:04:43;;;;;;;1.10;0.80;;;16.60;99.90;;;;;;5017052;28;20408;-82
2021/09/11 03:07:10;;;;;;;0.00;0.00;;;16.60;99.90;;;;;;5023135;28;20045;-80
2021/09/11 03:09:36;;;;;;;0.00;0.00;;;16.70;99.90;;;;;;5016190;28;20046;-83
2021/09/11 03:12:03;;;;;;;0.00;0.00;;;16.70;99.90;;;;;;4992244;28;20137;-82
2021/09/11 03:14:30;;;;;;;0.00;0.00;;;16.80;99.90;;;;;;5009320;28;20507;-81
2021/09/11 03:16:57;;;;;;;0.03;0.03;;;16.80;99.90;;;;;;4993152;28;20589;-81
2021/09/11 03:19:24;;;;;;;0.00;0.00;;;16.90;99.90;;;;;;4993309;28;20621;-81
2021/09/11 03:21:51;;;;;;;0.00;0.00;;;16.90;99.90;;;;;;5008676;28;20403;-81
2021/09/11 03:24:18;;;;;;;0.03;0.03;;;17.00;99.90;;;;;;4992274;28;20622;-79
2021/09/11 03:26:44;;;;;;;0.43;0.43;;;17.10;99.90;;;;;;5007454;28;20065;-80
2021/09/11 03:29:11;;;;;;;0.05;0.05;;;17.10;99.90;;;;;;4993826;28;20046;-79
2021/09/11 03:31:38;;;;;;;0.00;0.00;;;17.20;99.90;;;;;;5011489;28;20042;-81
2021/09/11 03:34:05;;;;;;;0.47;0.47;;;17.30;99.90;;;;;;5033814;28;20037;-81
2021/09/11 03:36:32;;;;;;;0.50;0.43;;;17.20;99.90;;;;;;5025875;28;20140;-82
2021/09/11 03:38:59;;;;;;;0.00;0.00;;;17.20;99.90;;;;;;5030324;28;20053;-82
2021/09/11 03:41:26;;;;;;;0.68;0.65;;;17.20;99.90;;;;;;5027361;28;20037;-81
2021/09/11 03:43:53;;;;;;;0.00;0.00;;;17.20;99.90;;;;;;5010993;28;20049;-81
2021/09/11 03:46:20;;;;;;;0.00;0.00;;;17.20;99.90;;;;;;5025734;28;20053;-80
2021/09/11 03:48:46;;;;;;;0.00;0.00;;;17.30;99.90;;;;;;5044156;28;20077;-82
2021/09/11 03:51:13;;;;;;;0.08;0.08;;;17.30;99.90;;;;;;5025843;28;20049;-80
2021/09/11 03:53:40;;;;;;;0.00;0.00;;;17.30;99.90;;;;;;5010192;28;20044;-79
2021/09/11 03:56:07;;;;;;;0.00;0.00;;;17.30;99.90;;;;;;5026336;28;20037;-79
2021/09/11 03:58:34;;;;;;;0.93;0.93;;;17.30;99.90;;;;;;5027336;28;20199;-79
2021/09/11 04:01:03;;;;;;;0.00;0.00;;;17.40;99.90;;;;;;5026113;28;20072;-80
2021/09/11 04:03:31;;;;;;;0.00;0.00;;;17.40;99.90;;;;;;5009522;28;20065;-80
2021/09/11 04:05:59;;;;;;;0.00;0.00;;;17.40;99.90;;;;;;4998720;28;20049;-80
2021/09/11 04:08:26;;;;;;;0.00;0.00;;;17.40;99.90;;;;;;5015768;28;20045;-80
2021/09/11 04:10:52;;;;;;;0.00;0.00;;;17.40;99.90;;;;;;5027158;28;20612;-80
2021/09/11 04:13:19;;;;;;;0.55;0.55;;;17.40;99.90;;;;;;5026817;28;20049;-81
2021/09/11 04:15:46;;;;;;;0.20;0.20;;;17.30;99.90;;;;;;5026174;28;20128;-82
2021/09/11 04:18:13;;;;;;;0.35;0.35;;;17.40;99.90;;;;;;5015194;28;20049;-80
2021/09/11 04:20:39;;;;;;;0.00;0.00;;;17.40;99.90;;;;;;5022953;28;20411;-80
2021/09/11 04:23:06;;;;;;;0.00;0.00;;;17.40;99.90;;;;;;4990755;28;20056;-80
2021/09/11 04:25:33;;;;;;;0.00;0.00;;;17.30;99.90;;;;;;5021987;28;20073;-81
2021/09/11 04:28:00;;;;;;;0.00;0.00;;;17.40;99.90;;;;;;5007220;28;20462;-82
2021/09/11 04:30:27;;;;;;;1.10;1.10;;;17.40;99.90;;;;;;5022108;28;20237;-83
2021/09/11 04:32:54;;;;;;;0.10;0.10;;;17.40;99.90;;;;;;5036509;28;20510;-81
2021/09/11 04:35:21;;;;;;;0.65;0.65;;;17.30;99.90;;;;;;5017552;28;20037;-81
2021/09/11 04:37:57;;;;;;;0.08;0.08;;;17.30;99.90;;;;;;5031266;28;20114;-83
2021/09/11 04:40:27;;;;;;;0.00;0.00;;;17.30;99.90;;;;;;5040384;28;20037;-82
2021/09/11 04:42:55;;;;;;;0.00;0.00;;;17.40;99.90;;;;;;5062662;28;20064;-82
2021/09/11 04:45:38;;;;;;;0.00;0.00;;;17.30;99.90;;;;;;5028153;28;20628;-82
2021/09/11 04:48:05;;;;;;;1.48;1.38;;;17.40;99.90;;;;;;5063420;28;20806;-81
2021/09/11 04:50:32;;;;;;;0.00;0.00;;;17.30;99.90;;;;;;5045999;28;20563;-82
2021/09/11 04:52:59;;;;;;;0.77;0.77;;;17.30;99.90;;;;;;5046293;28;20055;-82
2021/09/11 04:55:28;;;;;;;0.20;0.20;;;17.20;99.90;;;;;;5040736;28;20053;-80
2021/09/11 04:57:55;;;;;;;1.45;1.13;;;17.30;99.90;;;;;;5028384;28;20113;-81
2021/09/11 05:00:22;;;;;;;0.00;0.00;;;17.20;99.90;;;;;;5019327;28;20052;-80
2021/09/11 05:02:49;;;;;;;0.10;0.10;;;17.30;99.90;;;;;;5021835;28;20068;-80
2021/09/11 05:05:19;;;;;;;2.05;1.98;;;17.20;99.90;;;;;;5012161;28;20053;-82
2021/09/11 05:07:49;;;;;;;0.95;0.95;;;17.20;99.90;;;;;;5029820;28;20048;-82
2021/09/11 05:10:15;;;;;;;0.22;0.22;;;17.20;99.90;;;;;;5039259;28;20119;-81
2021/09/11 05:12:45;;;;;;;0.38;0.38;;;17.30;99.90;;;;;;5063027;28;20043;-82
2021/09/11 05:15:14;;;;;;;0.00;0.00;;;17.30;99.90;;;;;;5044023;28;20041;-82
2021/09/11 05:17:45;;;;;;;0.68;0.68;;;17.20;99.90;;;;;;5011121;28;20042;-81
2021/09/11 05:20:13;;;;;;;1.75;1.65;;;17.30;99.90;;;;;;5006152;28;20077;-80
2021/09/11 05:22:41;;;;;;;0.00;0.00;;;17.20;99.90;;;;;;5006756;28;20073;-81
2021/09/11 05:25:11;;;;;;;1.08;1.08;;;17.20;99.90;;;;;;5009665;28;20046;-81
2021/09/11 05:27:39;;;;;;;0.15;0.15;;;17.20;99.90;;;;;;5009274;28;20064;-82
2021/09/11 05:30:08;;;;;;;0.80;0.80;;;17.30;99.90;;;;;;5020576;28;20050;-83
2021/09/11 05:32:36;;;;;;;2.67;1.45;;;17.20;99.90;;;;;;5040804;28;20092;-81
2021/09/11 05:35:03;;;;;;;0.00;0.00;;;17.20;99.90;;;;;;5023849;28;20037;-82
2021/09/11 05:37:30;;;;;;;0.00;0.00;;;17.20;99.90;;;;;;5030779;28;20561;-83
2021/09/11 05:39:57;;;;;;;0.50;0.50;;;17.30;99.90;;;;;;5031453;28;20049;-81
2021/09/11 05:42:24;;;;;;;0.35;0.35;;;17.20;99.90;;;;;;5009671;28;20100;-81
2021/09/11 05:44:51;;;;;;;0.10;0.10;;;17.30;99.90;;;;;;5010700;28;20124;-80
2021/09/11 05:47:18;;;;;;;0.15;0.15;;;17.20;99.90;;;;;;5040098;28;20049;-80
2021/09/11 05:49:45;;;;;;;0.00;0.00;;;17.30;99.90;;;;;;5024968;28;20045;-82
2021/09/11 05:52:11;;;;;;;0.08;0.08;;;17.30;99.90;;;;;;5020163;28;20050;-83
2021/09/11 05:54:38;;;;;;;0.00;0.00;;;17.30;99.90;;;;;;5015900;28;20642;-81
2021/09/11 05:57:05;;;;;;;2.90;1.55;;;17.20;99.90;;;;;;5003774;28;20056;-82
2021/09/11 05:59:35;;;;;;;4.43;0.70;;;17.30;99.90;;;;;;5003898;28;20041;-80
2021/09/11 06:02:02;;;;;;;0.20;0.20;;;17.30;99.90;;;;;;5017757;28;20122;-81
2021/09/11 06:04:29;;;;;;;1.33;1.25;;;17.30;99.90;;;;;;5020061;28;20095;-81
2021/09/11 06:06:56;;;;;;;0.80;0.80;;;17.30;99.90;;;;;;5007397;28;20095;-84
2021/09/11 06:09:23;;;;;;;0.40;0.40;;;17.40;99.90;;;;;;5035737;28;20041;-82
2021/09/11 06:11:50;;;;;;;0.00;0.00;;;17.40;99.90;;;;;;5043383;28;20094;-81
2021/09/11 06:14:18;;;;;;;2.13;1.38;;;17.40;99.90;;;;;;5031611;28;20513;-81
2021/09/11 06:16:44;;;;;;;0.00;0.00;;;17.40;99.90;;;;;;5023245;28;20045;-81
2021/09/11 06:19:11;;;;;;;0.05;0.05;;;17.40;99.90;;;;;;5006866;28;20042;-81
2021/09/11 06:21:38;;;;;;;0.43;0.43;;;17.40;99.90;;;;;;5014772;28;20033;-81
2021/09/11 06:24:05;;;;;;;0.68;0.68;;;17.40;99.90;;;;;;5004479;28;20045;-80
2021/09/11 06:26:32;;;;;;;1.17;1.13;;;17.40;99.90;;;;;;5006092;28;20045;-81
2021/09/11 06:28:58;;;;;;;0.00;0.00;;;17.40;99.90;;;;;;5023351;28;20578;-82
2021/09/11 06:31:25;;;;;;;0.15;0.15;;;17.40;99.90;;;;;;5017289;28;20088;-82
2021/09/11 06:33:52;;;;;;;0.45;0.45;;;17.40;99.90;;;;;;5046992;28;20061;-81
2021/09/11 06:36:19;;;;;;;0.88;0.88;;;17.40;99.90;;;;;;5012294;28;20636;-80
2021/09/11 06:38:46;;;;;;;0.47;0.47;;;17.40;99.90;;;;;;5010823;28;20044;-82
2021/09/11 06:41:15;;;;;;;59.22;32.67;;;17.50;99.90;;;;;;5024642;28;20038;-82
2021/09/11 06:43:42;;;;;;;59.22;31.15;;;17.50;99.90;;;;;;5017518;28;20061;-80
2021/09/11 06:46:09;;;;;;;55.28;29.80;;;17.50;99.90;;;;;;5026436;28;20045;-81
2021/09/11 06:48:38;;;;;;;55.63;30.67;;;17.50;99.90;;;;;;5023228;28;20103;-81
2021/09/11 06:51:10;;;;;;;59.45;32.40;;;17.50;99.90;;;;;;5051402;28;20124;-79
2021/09/11 06:53:40;;;;;;;58.40;33.45;;;17.50;99.90;;;;;;5040617;28;20699;-82
2021/09/11 06:56:07;;;;;;;61.25;33.10;;;17.60;99.90;;;;;;5039496;28;20062;-81
2021/09/11 06:58:33;;;;;;;51.20;29.67;;;17.60;99.90;;;;;;5007962;28;20525;-81
2021/09/11 07:01:00;;;;;;;53.80;30.17;;;17.60;99.90;;;;;;5019092;28;20077;-81
2021/09/11 07:03:27;;;;;;;51.90;30.00;;;17.70;99.90;;;;;;5021763;28;20061;-81
2021/09/11 07:05:54;;;;;;;54.83;33.17;;;17.60;99.90;;;;;;4999198;28;20057;-81
2021/09/11 07:08:21;;;;;;;60.88;34.22;;;17.70;99.90;;;;;;5003946;28;20129;-81
2021/09/11 07:10:48;;;;;;;53.85;31.95;;;17.70;99.90;;;;;;5003975;28;20054;-81
2021/09/11 07:13:15;;;;;;;56.63;31.75;;;17.80;99.90;;;;;;4988658;28;20085;-81
2021/09/11 07:15:43;;;;;;;61.72;33.70;;;17.90;99.90;;;;;;5019697;28;20049;-81
2021/09/11 07:18:10;;;;;;;58.58;34.80;;;17.90;99.90;;;;;;5019794;28;20037;-81
2021/09/11 07:20:37;;;;;;;60.33;33.20;;;17.90;99.90;;;;;;5028029;28;20111;-81
2021/09/11 07:23:04;;;;;;;60.35;34.35;;;17.80;99.90;;;;;;5033426;28;20278;-81
2021/09/11 07:25:30;;;;;;;68.65;36.30;;;17.80;99.90;;;;;;5044951;28;20041;-81
2021/09/11 07:27:57;;;;;;;64.50;34.90;;;17.70;99.90;;;;;;5043519;28;20053;-81
2021/09/11 07:30:24;;;;;;;67.10;37.08;;;17.70;99.90;;;;;;5024951;28;20125;-82
2021/09/11 07:32:51;;;;;;;70.45;36.63;;;17.70;99.90;;;;;;5030715;28;20041;-82
2021/09/11 07:35:18;;;;;;;73.40;39.83;;;17.70;99.90;;;;;;5026713;28;20045;-81
2021/09/11 07:37:48;;;;;;;65.78;35.85;;;17.70;99.90;;;;;;5024106;28;20054;-80
2021/09/11 07:40:15;;;;;;;64.72;36.22;;;17.70;99.90;;;;;;5012166;28;20508;-80
2021/09/11 07:42:41;;;;;;;66.90;36.42;;;17.80;99.90;;;;;;5028855;28;20046;-80
2021/09/11 07:45:13;;;;;;;66.38;35.53;;;17.80;99.90;;;;;;5023331;28;20156;-80
2021/09/11 07:47:41;;;;;;;65.43;37.75;;;17.80;99.90;;;;;;5021124;28;20088;-80
2021/09/11 07:50:08;;;;;;;66.95;37.30;;;17.80;99.90;;;;;;5017833;28;20045;-79
2021/09/11 07:52:35;;;;;;;64.75;34.60;;;17.90;99.90;;;;;;5018124;28;20477;-81
2021/09/11 07:55:03;;;;;;;67.75;37.40;;;17.90;99.90;;;;;;5029164;28;20036;-81
2021/09/11 07:57:30;;;;;;;72.85;39.28;;;17.90;99.90;;;;;;5026294;28;20061;-79
2021/09/11 07:59:57;;;;;;;77.10;39.70;;;17.90;99.90;;;;;;5025537;28;20115;-81
2021/09/11 08:02:27;;;;;;;72.78;40.35;;;17.90;99.90;;;;;;5004928;28;20097;-80
2021/09/11 08:04:54;;;;;;;79.95;42.90;;;17.90;99.90;;;;;;5017309;28;20073;-80
2021/09/11 08:07:25;;;;;;;84.80;44.40;;;17.80;99.90;;;;;;5034873;28;20603;-80
2021/09/11 08:09:52;;;;;;;83.43;46.60;;;17.80;99.90;;;;;;5029920;28;20517;-81
2021/09/11 08:12:19;;;;;;;86.40;46.60;;;17.70;99.90;;;;;;5045915;28;20052;-80
2021/09/11 08:14:45;;;;;;;94.95;46.30;;;17.80;99.90;;;;;;5061112;28;20049;-81
2021/09/11 08:17:12;;;;;;;89.53;49.33;;;17.90;99.90;;;;;;5015775;28;20056;-81
2021/09/11 08:19:39;;;;;;;90.50;46.60;;;17.80;99.90;;;;;;5039387;28;20485;-80
2021/09/11 08:22:06;;;;;;;89.05;49.15;;;17.90;99.90;;;;;;5008951;28;20057;-80
2021/09/11 08:24:33;;;;;;;85.70;45.75;;;18.10;99.90;;;;;;5043168;28;20493;-80
2021/09/11 08:26:59;;;;;;;82.22;45.03;;;18.00;99.90;;;;;;5026127;28;20100;-80
2021/09/11 08:29:26;;;;;;;83.97;46.95;;;18.00;99.90;;;;;;5040168;28;20068;-80
2021/09/11 08:31:53;;;;;;;74.18;43.90;;;18.00;99.90;;;;;;5032767;28;20197;-80
2021/09/11 08:34:20;;;;;;;84.28;47.00;;;18.00;99.90;;;;;;5047958;28;20075;-81
2021/09/11 08:36:47;;;;;;;75.63;45.30;;;18.10;99.90;;;;;;5061342;28;20045;-81
2021/09/11 08:39:25;;;;;;;80.07;47.28;;;18.10;99.90;;;;;;5024695;28;20053;-81
2021/09/11 08:41:54;;;;;;;73.90;46.60;;;18.10;99.90;;;;;;5027477;28;20041;-82
2021/09/11 08:44:28;;;;;;;73.38;45.78;;;18.10;99.90;;;;;;5027225;28;20037;-78
2021/09/11 08:46:55;;;;;;;76.10;46.45;;;18.30;99.90;;;;;;5023215;28;20100;-79
2021/09/11 08:49:22;;;;;;;84.28;50.60;;;18.40;99.90;;;;;;5029423;28;20633;-78
2021/09/11 08:51:50;;;;;;;77.93;46.85;;;18.50;99.90;;;;;;5043432;28;20049;-78
2021/09/11 08:54:20;;;;;;;72.35;45.53;;;18.40;99.90;;;;;;5027239;28;20033;-79
2021/09/11 08:56:49;;;;;;;60.25;40.85;;;18.20;99.90;;;;;;4993396;28;20455;-78
2021/09/11 08:59:18;;;;;;;57.72;37.17;;;18.10;99.90;;;;;;5009792;28;20396;-78
2021/09/11 09:02:06;;;;;;;52.08;35.88;;;18.10;99.90;;;;;;5007876;28;20042;-78
2021/09/11 09:05:04;;;;;;;52.53;37.30;;;18.00;99.90;;;;;;5027018;28;20050;-79
2021/09/11 09:07:32;;;;;;;50.05;33.03;;;18.10;99.90;;;;;;5043397;28;20242;-79
2021/09/11 09:10:04;;;;;;;41.85;29.65;;;18.30;99.90;;;;;;5013197;28;20073;-79
2021/09/11 09:12:33;;;;;;;41.97;30.83;;;18.30;99.90;;;;;;5013156;28;20053;-78
2021/09/11 09:15:03;;;;;;;42.65;30.33;;;18.40;99.90;;;;;;5026160;28;20206;-79
2021/09/11 09:17:40;;;;;;;40.30;29.15;;;18.50;99.90;;;;;;4996148;28;20053;-79
2021/09/11 09:20:14;;;;;;;35.90;25.92;;;18.50;99.90;;;;;;5024638;28;20060;-80
2021/09/11 09:22:44;;;;;;;37.92;26.65;;;18.60;99.90;;;;;;5006268;28;20038;-80
2021/09/11 09:25:22;;;;;;;35.72;25.10;;;18.70;99.90;;;;;;5018334;28;20526;-78
2021/09/11 09:27:55;;;;;;;31.85;23.95;;;18.90;99.90;;;;;;5019274;28;20398;-79
2021/09/11 09:30:24;;;;;;;31.20;23.35;;;18.90;99.90;;;;;;5022185;28;20287;-79
2021/09/11 09:32:51;;;;;;;28.38;20.75;;;19.00;99.90;;;;;;5006650;28;20037;-79
2021/09/11 09:35:24;;;;;;;27.17;20.70;;;18.90;99.90;;;;;;5021455;28;20046;-80
2021/09/11 09:38:06;;;;;;;28.42;20.20;;;19.00;99.90;;;;;;5016464;28;20373;-79
2021/09/11 09:40:53;;;;;;;27.73;20.58;;;19.00;99.90;;;;;;5026277;28;20050;-80
2021/09/11 09:43:38;;;;;;;28.38;18.73;;;19.00;99.90;;;;;;4993461;28;20113;-79
2021/09/11 09:46:09;;;;;;;20.67;16.48;;;19.00;99.90;;;;;;5018100;28;20037;-79
2021/09/11 09:48:38;;;;;;;17.80;14.70;;;19.20;99.90;;;;;;5026003;28;20045;-79
2021/09/11 09:51:09;;;;;;;21.50;14.80;;;19.50;99.90;;;;;;5033253;28;20197;-79
2021/09/11 09:53:38;;;;;;;22.10;15.32;;;19.60;99.90;;;;;;5050823;28;20320;-80
2021/09/11 09:56:06;;;;;;;18.17;15.02;;;19.50;99.90;;;;;;5033757;28;20058;-80
2021/09/11 09:58:34;;;;;;;18.02;14.82;;;19.60;99.90;;;;;;5028420;28;20045;-78
2021/09/11 10:01:01;;;;;;;16.42;13.90;;;19.40;99.90;;;;;;5027235;28;20057;-78
2021/09/11 10:03:28;;;;;;;15.95;13.40;;;19.40;99.90;;;;;;5010211;28;20042;-79
2021/09/11 10:06:11;;;;;;;16.25;13.13;;;19.30;99.90;;;;;;5018988;28;20103;-78
2021/09/11 10:08:45;;;;;;;14.63;10.50;;;19.50;99.90;;;;;;5022348;28;20053;-80
2021/09/11 10:11:12;;;;;;;13.83;9.40;;;19.70;99.90;;;;;;5008132;28;20050;-79
2021/09/11 10:13:59;;;;;;;9.80;8.80;;;19.80;99.90;;;;;;5009942;28;20288;-80
2021/09/11 10:16:35;;;;;;;11.80;9.65;;;19.90;99.90;;;;;;5016860;28;20045;-78
2021/09/11 10:19:19;;;;;;;9.73;8.63;;;20.30;99.90;;;;;;5011427;28;20057;-80
2021/09/11 10:21:48;;;;;;;9.57;8.13;;;20.40;99.90;;;;;;5005701;28;20103;-80
2021/09/11 10:24:18;;;;;;;9.00;8.10;;;20.20;99.90;;;;;;5025143;28;20053;-80
2021/09/11 10:26:53;;;;;;;11.15;8.43;;;19.90;99.90;;;;;;4995465;28;20056;-80
2021/09/11 10:29:49;;;;;;;9.85;8.85;;;19.80;99.90;;;;;;5009172;28;20503;-79
2021/09/11 10:32:24;;;;;;;8.88;8.00;;;19.70;99.90;;;;;;5004627;28;20053;-80
2021/09/11 10:34:54;;;;;;;9.40;8.00;;;19.80;99.90;;;;;;5033659;28;20735;-79
2021/09/11 10:37:29;;;;;;;10.88;8.63;;;20.00;99.90;;;;;;5027998;28;20037;-80
2021/09/11 10:40:33;;;;;;;9.00;7.57;;;20.10;99.90;;;;;;5043031;28;20417;-80
2021/09/11 10:43:06;;;;;;;8.40;7.53;;;20.40;99.90;;;;;;5045066;28;20053;-80
2021/09/11 10:45:58;;;;;;;9.13;8.30;;;20.80;99.90;;;;;;5027638;28;20352;-80
2021/09/11 10:48:42;;;;;;;14.95;11.27;;;21.20;99.90;;;;;;5012625;28;20042;-80
2021/09/11 10:51:29;;;;;;;9.02;8.15;;;21.20;99.90;;;;;;4991276;28;20124;-80
2021/09/11 10:54:03;;;;;;;10.38;9.32;;;21.50;99.90;;;;;;5021936;28;20310;-81
2021/09/11 10:56:51;;;;;;;9.18;8.38;;;21.90;99.90;;;;;;5024869;28;20076;-81
2021/09/11 10:59:18;;;;;;;8.55;7.75;;;21.90;99.90;;;;;;5025565;28;20111;-82
2021/09/11 11:02:04;;;;;;;10.23;7.60;;;21.80;99.90;;;;;;5025798;28;20045;-87
2021/09/11 11:04:37;;;;;;;90.45;16.92;;;22.10;99.90;;;;;;5034107;28;20047;-78
2021/09/11 11:07:10;;;;;;;9.65;8.25;;;21.90;99.90;;;;;;5042586;28;20479;-79
2021/09/11 11:09:42;;;;;;;13.25;8.93;;;21.70;99.90;;;;;;5046934;28;20045;-79
2021/09/11 11:12:11;;;;;;;9.02;8.13;;;21.10;99.90;;;;;;5042743;28;20068;-80
2021/09/11 11:14:45;;;;;;;9.43;8.57;;;20.90;99.90;;;;;;5027965;28;20050;-79
2021/09/11 11:17:21;;;;;;;10.43;7.63;;;20.70;99.90;;;;;;5023058;28;20042;-81
2021/09/11 11:19:51;;;;;;;8.13;7.18;;;20.80;99.90;;;;;;5025633;28;20653;-78
2021/09/11 11:22:35;;;;;;;15.02;8.98;;;20.90;99.90;;;;;;5027507;28;20056;-81
2021/09/11 11:25:11;;;;;;;15.23;8.10;;;21.00;99.90;;;;;;5024558;28;20061;-80
2021/09/11 11:27:39;;;;;;;8.07;7.28;;;21.10;99.90;;;;;;5008130;28;20732;-80
2021/09/11 11:30:08;;;;;;;8.25;7.32;;;21.10;99.90;;;;;;5007246;28;20053;-80
2021/09/11 11:32:35;;;;;;;76.43;16.70;;;21.30;99.90;;;;;;5025720;28;20056;-81
2021/09/11 11:35:06;;;;;;;9.65;7.20;;;21.10;99.90;;;;;;5032932;28;20099;-79
2021/09/11 11:37:38;;;;;;;7.63;6.88;;;21.10;99.90;;;;;;5025692;28;20122;-80
2021/09/11 11:40:10;;;;;;;15.95;7.75;;;21.00;99.90;;;;;;5052147;28;20052;-80
2021/09/11 11:42:39;;;;;;;40.35;11.73;;;21.20;99.90;;;;;;5045525;28;20045;-79
2021/09/11 11:45:08;;;;;;;7.78;7.10;;;21.60;99.90;;;;;;5048590;28;20049;-79
2021/09/11 11:47:35;;;;;;;8.68;7.05;;;22.10;99.90;;;;;;5020235;28;20045;-79
2021/09/11 11:50:14;;;;;;;312.50;47.72;;;22.40;99.90;;;;;;5028559;28;20049;-79
2021/09/11 11:52:43;;;;;;;40.13;11.05;;;22.40;99.90;;;;;;5023206;28;20046;-78
2021/09/11 11:55:11;;;;;;;10.10;7.00;;;22.70;99.90;;;;;;5014510;28;20042;-79
2021/09/11 11:57:39;;;;;;;13.20;7.38;;;23.10;99.90;;;;;;5010645;28;20050;-82
2021/09/11 12:00:11;;;;;;;7.63;6.88;;;23.40;99.90;;;;;;5011803;28;20042;-82
2021/09/11 12:02:46;;;;;;;8.02;7.32;;;23.10;99.90;;;;;;4997576;28;20113;-80
2021/09/11 12:05:41;;;;;;;7.35;6.72;;;22.90;99.90;;;;;;5000923;28;20119;-83
2021/09/11 12:08:08;;;;;;;7.65;6.95;;;22.80;99.90;;;;;;5034690;28;20044;-82
2021/09/11 12:10:35;;;;;;;9.75;7.47;;;22.70;99.90;;;;;;5029407;28;20733;-80
2021/09/11 12:13:10;;;;;;;7.55;7.00;;;22.50;99.90;;;;;;5046069;28;20053;-79
2021/09/11 12:15:38;;;;;;;8.25;7.65;;;22.30;99.90;;;;;;5028206;28;20124;-81
2021/09/11 12:18:09;;;;;;;7.88;7.28;;;22.60;99.90;;;;;;5042309;28;20059;-80
2021/09/11 12:20:47;;;;;;;9.00;8.00;;;23.00;99.90;;;;;;5029205;28;20058;-80
2021/09/11 12:23:13;;;;;;;7.88;7.35;;;23.20;99.90;;;;;;5022493;28;20049;-79
2021/09/11 12:26:03;;;;;;;18.02;8.88;;;23.50;99.90;;;;;;5046587;28;20045;-80
2021/09/11 12:28:53;;;;;;;8.38;7.50;;;23.20;99.90;;;;;;5007210;28;20156;-79
2021/09/11 12:31:20;;;;;;;21.27;9.48;;;22.80;99.90;;;;;;5027240;28;20132;-79
2021/09/11 12:33:53;;;;;;;11.63;8.07;;;22.40;99.90;;;;;;5046297;28;20107;-81
2021/09/11 12:36:21;;;;;;;9.18;8.48;;;22.50;99.90;;;;;;5024889;28;20052;-83
2021/09/11 12:38:50;;;;;;;12.18;8.32;;;22.50;99.90;;;;;;5027046;28;20497;-82
2021/09/11 12:41:17;;;;;;;22.02;9.57;;;22.50;99.90;;;;;;5047123;28;20052;-80
2021/09/11 12:43:44;;;;;;;16.70;9.68;;;22.30;99.90;;;;;;5038992;28;20599;-81
2021/09/11 12:46:13;;;;;;;11.05;9.68;;;22.20;99.90;;;;;;5013131;28;20049;-82
2021/09/11 12:48:41;;;;;;;68.15;14.52;;;22.30;99.90;;;;;;5018158;28;20072;-82
2021/09/11 12:51:08;;;;;;;41.03;12.50;;;22.40;99.90;;;;;;5036969;28;20655;-81